Latest Weather Observations for Hogan Island

IDT60801

Issued at 9:35 pm EDT Sunday 23 November 2014 (issued every 30 minutes, with the page automatically refreshed every 10 minutes)

About weather observations | Map of weather stations | Latest weather observations for TAS | Other Formats
Station Details ID: 200838 Name: HOGAN ISLAND Lat: -39.22 Lon: 146.98 Height: 116.0 m
Data from the previous 72 hours. | See also: Recent months at Hogan Island
Date/Time
EDT
Temp
°C
App
Temp
°C
Dew
Point
Rel
Hum
%
Delta-T
°C
Wind Press
QNH
hPa
Press
MSL
hPa
Rain
since 9 am
mm
Dir
 
Spd
km/h
Gust
km/h
Spd
kts
Gust
kts
23/09:30pm 13.4 11.9 10.6 83 1.5 WNW 9 11 5 6 1014.7 - 0.0
23/09:00pm 13.3 11.3 10.3 82 1.6 W 11 11 6 6 1014.2 1014.1 0.0
23/08:30pm 13.6 12.5 10.6 82 1.6 WNW 7 9 4 5 1014.3 - 0.0
23/08:00pm 13.8 11.9 10.4 80 1.8 NW 11 13 6 7 1014.1 - 0.0
23/07:30pm 14.3 13.1 10.3 77 2.1 WNW 7 9 4 5 1013.9 - 0.0
23/07:00pm 15.0 13.5 10.6 75 2.3 W 9 11 5 6 1013.6 - 0.0
23/06:30pm 15.5 13.0 10.9 74 2.5 WSW 15 17 8 9 1013.3 - 0.0
23/06:00pm 16.9 13.9 12.0 73 2.7 WSW 19 20 10 11 1013.1 1013.0 0.0
23/05:30pm 16.1 13.7 11.3 73 2.6 SW 15 19 8 10 1012.9 - 0.0
23/05:00pm 16.6 13.4 11.3 71 2.9 SW 19 22 10 12 1012.7 - 0.0
23/04:30pm 18.2 14.1 11.5 65 3.7 SW 24 28 13 15 1012.5 - 0.0
23/04:00pm 18.1 13.4 11.9 67 3.4 SW 28 32 15 17 1012.3 - 0.0
23/03:30pm 18.3 13.9 11.8 66 3.6 SW 26 30 14 16 1012.1 - 0.0
23/03:00pm 17.9 13.3 11.2 65 3.7 SW 26 30 14 16 1012.0 1011.9 0.0
23/02:30pm 18.0 13.3 12.0 68 3.3 SW 28 30 15 16 1011.9 - 0.0
23/02:00pm 18.9 14.8 12.6 67 3.5 SW 26 28 14 15 1012.1 - 0.0
23/01:30pm 18.6 14.0 12.4 67 3.5 SW 28 32 15 17 1012.1 - 0.0
23/01:00pm 18.8 14.4 12.8 68 3.4 SW 28 30 15 16 1012.1 - 0.0
23/12:30pm 18.4 14.2 12.4 68 3.4 WSW 26 30 14 16 1012.5 - 0.0
23/12:00pm 18.1 13.1 12.3 69 3.2 WSW 30 33 16 18 1012.5 1012.4 0.0
23/11:30am 17.5 12.6 12.4 72 2.8 WSW 30 33 16 18 1012.7 - 0.0
23/11:00am 17.7 12.4 12.6 72 2.9 WSW 32 35 17 19 1012.5 - 0.0
23/10:30am 16.9 12.0 12.6 76 2.4 WSW 30 35 16 19 1012.5 - 0.0
23/10:00am 16.2 11.8 12.9 81 1.8 WSW 28 32 15 17 1012.7 - 0.0
23/09:30am 16.3 10.5 12.7 79 2.0 W 35 41 19 22 1012.2 - 0.0
23/09:00am 16.1 12.5 13.2 83 1.6 W 24 32 13 17 1012.5 1012.4 0.0
23/08:30am 15.2 9.1 12.9 86 1.3 W 37 41 20 22 1011.8 - 0.0
23/08:00am 14.5 7.9 12.5 88 1.1 W 39 43 21 23 1011.5 - 0.0
23/07:30am 14.2 7.2 12.6 90 0.9 WSW 41 44 22 24 1010.9 - 0.0
23/07:00am 13.7 6.6 12.3 91 0.8 W 41 46 22 25 1010.5 - 0.0
23/06:30am 13.6 5.6 12.5 93 0.6 W 46 52 25 28 1009.6 - 0.0
23/06:00am 13.6 6.0 12.3 92 0.7 W 44 52 24 28 1009.3 1009.2 0.0
23/05:30am 14.2 6.8 12.9 92 0.7 WSW 44 52 24 28 1009.4 - 0.0
23/05:00am 14.2 7.7 12.8 91 0.8 WSW 39 46 21 25 1009.0 - 0.0
23/04:30am 14.4 7.1 12.8 90 0.9 W 43 52 23 28 1008.5 - 0.0
23/04:00am 14.6 6.8 13.0 90 0.9 W 46 54 25 29 1008.0 - 0.0
23/03:30am 14.8 6.2 12.8 88 1.1 W 50 57 27 31 1007.5 - 0.0
23/03:00am 15.2 6.3 13.1 87 1.2 W 52 59 28 32 1007.1 1007.0 0.0
23/02:30am 15.5 6.6 13.0 85 1.4 W 52 59 28 32 1006.6 - 0.0
23/02:00am 15.7 6.3 12.6 82 1.7 W 54 61 29 33 1006.6 - 0.0
23/01:30am 16.2 7.0 12.2 77 2.2 W 52 61 28 33 1006.2 - 0.0
23/01:00am 16.7 9.6 12.3 75 2.4 W 41 52 22 28 1006.2 - 0.0
23/12:30am 17.5 12.0 12.4 72 2.8 W 33 39 18 21 1006.5 - 0.0
23/12:00am 17.8 12.5 12.5 71 3.0 WNW 32 37 17 20 1006.6 1006.5 0.0
 
Date/Time
EDT
Temp
°C
App
Temp
°C
Dew
Point
Rel
Hum
%
Delta-T
°C
Wind Press
QNH
hPa
Press
MSL
hPa
Rain
since 9 am
mm
Dir
 
Spd
km/h
Gust
km/h
Spd
kts
Gust
kts
22/11:30pm 17.0 13.1 12.1 73 2.7 NW 24 32 13 17 1006.6 - 0.0
22/11:00pm 18.7 12.9 11.5 63 4.0 N 33 44 18 24 1006.5 - 0.0
22/10:30pm 18.7 11.3 10.0 57 4.7 NNE 39 50 21 27 1006.0 - 0.0
22/10:00pm 21.0 13.4 10.5 51 5.7 N 41 46 22 25 1005.6 - 0.0
22/09:30pm 18.7 10.9 9.8 56 4.7 N 41 50 22 27 1005.9 - 0.0
22/09:00pm 19.7 11.8 10.7 56 4.9 NNE 43 54 23 29 1006.4 1006.3 0.0
22/08:30pm 17.0 12.0 12.3 74 2.6 NNE 30 37 16 20 1006.3 - 0.0
22/08:00pm 17.1 12.2 12.4 74 2.6 NNE 30 37 16 20 1006.7 - 0.0
22/07:30pm 16.9 12.2 12.0 73 2.7 NE 28 33 15 18 1006.1 - 0.0
22/07:00pm 17.8 12.3 12.3 70 3.1 NNE 33 39 18 21 1006.4 - 0.0
22/06:30pm 18.2 14.8 12.4 69 3.2 NNE 22 30 12 16 1006.5 - 0.0
22/06:00pm 19.8 17.1 13.5 67 3.6 NNE 20 28 11 15 1006.5 1006.4 0.0
22/05:30pm 18.3 15.8 13.6 74 2.7 NE 19 28 10 15 1006.9 - 0.0
22/05:00pm 18.0 15.3 13.5 75 2.6 NE 20 28 11 15 1007.1 - 0.0
22/04:30pm 19.7 17.2 14.1 70 3.2 NNE 20 28 11 15 1007.4 - 0.0
22/04:00pm 19.4 16.7 13.6 69 3.3 NNE 20 28 11 15 1007.7 - 0.0
22/03:30pm 20.9 18.4 14.1 65 4.0 NNE 20 26 11 14 1007.9 - 0.0
22/03:00pm 20.2 16.8 13.6 66 3.8 NNE 24 32 13 17 1008.4 1008.3 0.0
22/02:30pm 19.3 15.9 13.7 70 3.2 NNE 24 30 13 16 1008.6 - 0.0
22/02:00pm 18.3 14.9 13.6 74 2.7 NNE 24 32 13 17 1009.0 - 0.0
22/01:30pm 17.6 13.5 12.7 73 2.7 NNE 26 35 14 19 1009.1 - 0.0
22/01:00pm 17.9 13.0 13.6 76 2.5 NNE 32 39 17 21 1009.0 - 0.0
22/12:30pm 17.1 11.6 12.4 74 2.6 NNE 33 41 18 22 1009.3 - 0.0
22/12:00pm 17.3 11.5 12.8 75 2.5 NNE 35 43 19 23 1009.6 1009.5 0.0
22/11:30am 16.3 10.9 12.7 79 2.0 NNE 33 41 18 22 1009.7 - 0.0
22/11:00am 18.5 14.0 13.8 74 2.7 NNE 30 37 16 20 1010.5 - 0.0
22/10:30am 16.5 11.6 12.7 78 2.1 NNE 30 41 16 22 1010.7 - 0.0
22/10:00am 16.8 11.6 13.5 81 1.9 NNE 33 41 18 22 1010.9 - 0.0
22/09:30am 15.2 9.8 12.3 83 1.6 NE 32 35 17 19 1011.1 - 0.0
22/09:00am 16.4 11.5 13.7 84 1.5 NNE 32 35 17 19 1011.7 1011.6 0.0
22/08:30am 15.6 11.3 13.3 86 1.3 NNE 28 32 15 17 1011.7 - 0.0
22/08:00am 15.1 10.8 13.3 89 1.0 NE 28 33 15 18 1011.6 - 0.0
22/07:30am 14.4 10.4 13.1 92 0.7 NE 26 32 14 17 1011.5 - 0.0
22/07:00am 14.2 9.9 13.1 93 0.6 NE 28 32 15 17 1011.2 - 0.0
22/06:30am 13.0 9.0 11.9 93 0.6 NE 24 28 13 15 1011.0 - 0.0
22/06:00am 12.7 8.3 11.6 93 0.6 NNE 26 30 14 16 1011.0 1010.9 0.0
22/05:30am 12.6 8.1 11.5 93 0.6 NNE 26 30 14 16 1011.2 - 0.0
22/05:00am 12.5 7.6 11.4 93 0.6 NNE 28 32 15 17 1011.0 - 0.0
22/04:30am 12.2 6.8 10.9 92 0.7 NNE 30 35 16 19 1010.6 - 0.0
22/04:00am 12.1 7.4 10.7 91 0.7 NNE 26 32 14 17 1010.7 - 0.0
22/03:30am 11.7 7.7 10.3 91 0.7 NNE 22 26 12 14 1010.7 - 0.0
22/03:00am 11.3 7.7 9.7 90 0.8 NE 19 20 10 11 1011.3 1011.2 0.0
22/02:30am 11.9 11.2 10.1 89 0.9 NNW 4 11 2 6 1011.9 - 0.0
22/02:00am 10.9 8.2 9.0 88 0.9 N 13 15 7 8 1012.3 - 0.0
22/01:30am 11.5 10.3 9.4 87 1.1 ESE 6 9 3 5 1012.4 - 0.0
22/01:00am 11.4 9.9 9.3 87 1.1 SSW 7 11 4 6 1012.7 - 0.0
22/12:30am 11.2 8.9 8.9 86 1.1 WSW 11 11 6 6 1013.0 - 0.0
22/12:00am 11.9 9.0 9.5 85 1.2 W 15 17 8 9 1013.3 1013.2 0.0
 
Date/Time
EDT
Temp
°C
App
Temp
°C
Dew
Point
Rel
Hum
%
Delta-T
°C
Wind Press
QNH
hPa
Press
MSL
hPa
Rain
since 9 am
mm
Dir
 
Spd
km/h
Gust
km/h
Spd
kts
Gust
kts
21/11:30pm 12.3 8.5 9.7 84 1.3 W 20 26 11 14 1013.5 - 0.0
21/11:00pm 12.6 7.7 10.0 84 1.3 W 26 32 14 17 1013.2 - 0.0
21/10:30pm 12.6 6.5 9.8 83 1.4 W 32 35 17 19 1013.2 - 0.0
21/10:00pm 12.7 6.6 9.9 83 1.4 W 32 33 17 18 1013.3 - 0.0
21/09:30pm 12.7 8.1 9.7 82 1.5 W 24 28 13 15 1013.1 - 0.0
21/09:00pm 12.8 7.3 9.3 79 1.8 WSW 28 32 15 17 1012.8 1012.7 0.0
21/08:30pm 12.9 6.4 9.0 77 2.0 WSW 33 35 18 19 1012.5 - 0.0
21/08:00pm 13.4 7.1 9.1 75 2.2 WSW 32 37 17 20 1012.2 - 0.0
21/07:30pm 14.1 7.7 9.3 73 2.5 WSW 33 37 18 20 1011.8 - 0.0
21/07:00pm 14.8 8.5 9.6 71 2.7 W 33 37 18 20 1011.5 - 0.0
21/06:30pm 15.3 8.8 10.3 72 2.6 W 35 41 19 22 1011.3 - 0.0
21/06:00pm 15.3 7.5 9.7 69 2.9 W 41 46 22 25 1011.0 1010.9 0.0
21/05:30pm 15.9 8.3 10.4 70 2.9 W 41 46 22 25 1010.7 - 0.0
21/05:00pm 16.1 8.5 10.4 69 3.0 WSW 41 48 22 26 1010.7 - 0.0
21/04:30pm 16.6 7.3 10.7 68 3.2 W 50 57 27 31 1010.4 - 0.0
21/04:00pm 16.7 7.9 10.8 68 3.2 W 48 57 26 31 1010.3 - 0.0
21/03:30pm 16.2 6.3 9.8 66 3.4 W 52 61 28 33 1010.2 - 0.0
21/03:00pm 16.0 6.0 9.4 65 3.4 W 52 59 28 32 1010.0 1009.9 0.0
21/02:30pm 16.7 6.8 9.9 64 3.6 W 52 59 28 32 1009.9 - 0.0
21/02:00pm 16.5 6.1 9.4 63 3.7 W 54 63 29 34 1009.7 - 0.0
21/01:30pm 16.2 5.7 8.9 62 3.8 W 54 61 29 33 1009.5 - 0.0
21/01:00pm 16.1 5.5 8.6 61 3.8 W 54 63 29 34 1009.5 - 0.0
21/12:30pm 15.6 4.5 8.8 64 3.5 W 57 65 31 35 1009.4 - 0.0
21/12:00pm 15.7 5.2 8.9 64 3.5 W 54 63 29 34 1009.5 1009.4 0.0
21/11:30am 15.7 6.0 8.9 64 3.5 WSW 50 57 27 31 1009.3 - 0.0
21/11:00am 15.5 5.8 10.5 72 2.7 WSW 52 65 28 35 1008.9 - 0.0
21/10:30am 15.4 5.0 11.2 76 2.3 WSW 57 67 31 36 1008.5 - 0.0
21/10:00am 15.2 4.9 12.9 86 1.3 WSW 59 69 32 37 1008.1 - 0.0
21/09:30am 14.7 4.0 12.9 89 1.0 W 61 69 33 37 1007.3 - 0.0
21/09:00am 14.5 6.4 13.2 92 0.7 W 48 56 26 30 1007.5 1007.4 1.6
21/08:30am 14.6 6.1 13.1 91 0.8 W 50 59 27 32 1006.9 - 1.6
21/08:00am 14.6 6.9 13.3 92 0.7 W 46 54 25 29 1006.2 - 1.6
21/07:30am 14.5 5.7 13.4 93 0.6 W 52 61 28 33 1005.7 - 1.6
21/07:00am 14.0 4.7 13.1 94 0.5 W 54 63 29 34 1005.3 - 1.6
21/06:30am 14.2 6.1 13.2 94 0.6 W 48 57 26 31 1005.3 - 1.6
21/06:00am 14.0 5.9 13.2 95 0.4 W 48 54 26 29 1004.8 1004.7 1.6
21/05:30am 13.9 7.8 13.1 95 0.4 W 37 44 20 24 1004.4 - 1.6
21/05:00am 14.1 6.0 13.3 95 0.4 W 48 56 26 30 1003.7 - 1.6
21/04:30am 14.3 7.0 13.5 95 0.4 W 44 54 24 29 1003.6 - 1.6
21/04:00am 15.0 8.5 14.0 94 0.6 W 41 52 22 28 1003.5 - 1.6
21/03:30am 15.6 8.0 14.6 94 0.6 W 48 59 26 32 1003.3 - 1.6
21/03:18am 16.0 10.6 15.0 94 0.6 WNW 37 50 20 27 1003.3 - 1.6
21/03:00am 15.9 11.2 14.9 94 0.6 NNW 33 39 18 21 1003.3 1003.2 1.6
21/02:30am 15.5 11.6 14.5 94 0.6 NNW 28 39 15 21 1003.5 - 1.6
21/02:00am 15.7 11.1 14.6 93 0.6 N 32 43 17 23 1003.5 - 1.6
21/01:30am 15.5 11.1 14.2 92 0.7 N 30 44 16 24 1003.6 - 1.6
21/01:12am 16.1 10.9 14.6 91 0.9 N 35 54 19 29 1003.7 - 1.6
21/01:00am 16.1 10.6 14.6 91 0.9 N 37 50 20 27 1003.8 - 1.6
21/12:30am 16.9 11.6 15.2 90 1.0 N 37 46 20 25 1004.0 - 1.6
21/12:00am 16.4 11.0 15.1 92 0.8 N 37 43 20 23 1004.4 1004.3 1.6
 
Date/Time
EDT
Temp
°C
App
Temp
°C
Dew
Point
Rel
Hum
%
Delta-T
°C
Wind Press
QNH
hPa
Press
MSL
hPa
Rain
since 9 am
mm
Dir
 
Spd
km/h
Gust
km/h
Spd
kts
Gust
kts
20/11:30pm 16.6 12.3 15.5 93 0.6 N 32 43 17 23 1004.6 - 1.6
20/11:00pm 15.6 11.5 14.8 95 0.5 N 30 39 16 21 1005.0 - 1.6
20/10:30pm 14.4 11.3 13.4 94 0.6 NNE 22 26 12 14 1005.4 - 1.6
20/10:00pm 14.7 12.6 13.7 94 0.6 NNE 17 28 9 15 1006.2 - 1.4

Other Formats:

Comma delimited format used in spreadsheet applications
http://www.bom.gov.au/fwo/IDT60801/IDT60801.94949.axf

JavaScript Object Notation format (JSON) in row-major order
http://www.bom.gov.au/fwo/IDT60801/IDT60801.94949.json